sensor_id;sensor_type;location;lat;lon;timestamp;P1;durP1;ratioP1;P2;durP2;ratioP2
31112;SDS011;17763;48.730;9.136;2023-04-03T00:01:05;4.97;;;4.28;;
31112;SDS011;17763;48.730;9.136;2023-04-03T00:03:31;4.85;;;4.00;;
31112;SDS011;17763;48.730;9.136;2023-04-03T00:05:58;5.20;;;4.32;;
31112;SDS011;17763;48.730;9.136;2023-04-03T00:08:34;4.90;;;4.50;;
31112;SDS011;17763;48.730;9.136;2023-04-03T00:11:00;7.78;;;4.88;;
31112;SDS011;17763;48.730;9.136;2023-04-03T00:13:26;4.90;;;4.22;;
31112;SDS011;17763;48.730;9.136;2023-04-03T00:15:52;6.20;;;5.22;;
31112;SDS011;17763;48.730;9.136;2023-04-03T00:18:20;5.72;;;4.38;;
31112;SDS011;17763;48.730;9.136;2023-04-03T00:20:49;4.53;;;4.13;;
31112;SDS011;17763;48.730;9.136;2023-04-03T00:23:17;5.18;;;4.32;;
31112;SDS011;17763;48.730;9.136;2023-04-03T00:25:43;6.88;;;4.85;;
31112;SDS011;17763;48.730;9.136;2023-04-03T00:28:11;6.05;;;4.13;;
31112;SDS011;17763;48.730;9.136;2023-04-03T00:30:39;6.57;;;5.22;;
31112;SDS011;17763;48.730;9.136;2023-04-03T00:33:05;4.93;;;4.38;;
31112;SDS011;17763;48.730;9.136;2023-04-03T00:35:31;6.95;;;4.55;;
31112;SDS011;17763;48.730;9.136;2023-04-03T00:37:57;5.70;;;5.20;;
31112;SDS011;17763;48.730;9.136;2023-04-03T00:40:24;7.82;;;4.97;;
31112;SDS011;17763;48.730;9.136;2023-04-03T00:42:57;6.47;;;4.78;;
31112;SDS011;17763;48.730;9.136;2023-04-03T00:45:33;7.18;;;4.88;;
31112;SDS011;17763;48.730;9.136;2023-04-03T00:48:05;5.07;;;4.57;;
31112;SDS011;17763;48.730;9.136;2023-04-03T00:50:34;4.75;;;4.35;;
31112;SDS011;17763;48.730;9.136;2023-04-03T00:53:02;5.28;;;4.40;;
31112;SDS011;17763;48.730;9.136;2023-04-03T00:55:31;5.13;;;4.25;;
31112;SDS011;17763;48.730;9.136;2023-04-03T00:57:58;4.90;;;4.40;;
31112;SDS011;17763;48.730;9.136;2023-04-03T01:00:25;4.45;;;4.05;;
31112;SDS011;17763;48.730;9.136;2023-04-03T01:02:54;6.70;;;4.65;;
31112;SDS011;17763;48.730;9.136;2023-04-03T01:05:20;4.85;;;4.38;;
31112;SDS011;17763;48.730;9.136;2023-04-03T01:07:46;4.35;;;4.03;;
31112;SDS011;17763;48.730;9.136;2023-04-03T01:10:14;5.95;;;4.72;;
31112;SDS011;17763;48.730;9.136;2023-04-03T01:12:45;4.68;;;4.28;;
31112;SDS011;17763;48.730;9.136;2023-04-03T01:15:16;5.22;;;4.72;;
31112;SDS011;17763;48.730;9.136;2023-04-03T01:17:51;5.25;;;4.70;;
31112;SDS011;17763;48.730;9.136;2023-04-03T01:28:09;6.10;;;4.15;;
31112;SDS011;17763;48.730;9.136;2023-04-03T01:33:15;5.28;;;4.82;;
31112;SDS011;17763;48.730;9.136;2023-04-03T01:35:41;6.88;;;4.82;;
31112;SDS011;17763;48.730;9.136;2023-04-03T01:38:07;6.15;;;4.18;;
31112;SDS011;17763;48.730;9.136;2023-04-03T01:40:35;5.40;;;4.55;;
31112;SDS011;17763;48.730;9.136;2023-04-03T01:43:01;4.82;;;4.40;;
31112;SDS011;17763;48.730;9.136;2023-04-03T01:45:30;5.93;;;4.60;;
31112;SDS011;17763;48.730;9.136;2023-04-03T01:47:58;5.18;;;4.32;;
31112;SDS011;17763;48.730;9.136;2023-04-03T01:50:29;5.25;;;4.63;;
31112;SDS011;17763;48.730;9.136;2023-04-03T01:52:57;6.93;;;4.80;;
31112;SDS011;17763;48.730;9.136;2023-04-03T01:55:25;5.90;;;5.30;;
31112;SDS011;17763;48.730;9.136;2023-04-03T01:57:51;4.63;;;4.20;;
31112;SDS011;17763;48.730;9.136;2023-04-03T02:00:22;5.88;;;5.20;;
31112;SDS011;17763;48.730;9.136;2023-04-03T02:02:50;5.40;;;3.90;;
31112;SDS011;17763;48.730;9.136;2023-04-03T02:05:16;7.20;;;4.05;;
31112;SDS011;17763;48.730;9.136;2023-04-03T02:07:42;5.05;;;4.60;;
31112;SDS011;17763;48.730;9.136;2023-04-03T02:10:08;5.18;;;4.32;;
31112;SDS011;17763;48.730;9.136;2023-04-03T02:12:36;4.78;;;4.38;;
31112;SDS011;17763;48.730;9.136;2023-04-03T02:15:02;4.60;;;3.90;;
31112;SDS011;17763;48.730;9.136;2023-04-03T02:17:28;5.32;;;4.22;;
31112;SDS011;17763;48.730;9.136;2023-04-03T02:19:53;5.18;;;4.68;;
31112;SDS011;17763;48.730;9.136;2023-04-03T02:22:22;4.63;;;4.22;;
31112;SDS011;17763;48.730;9.136;2023-04-03T02:24:55;4.72;;;4.32;;
31112;SDS011;17763;48.730;9.136;2023-04-03T02:27:21;5.78;;;4.63;;
31112;SDS011;17763;48.730;9.136;2023-04-03T02:29:47;7.15;;;4.60;;
31112;SDS011;17763;48.730;9.136;2023-04-03T02:32:13;4.53;;;4.22;;
31112;SDS011;17763;48.730;9.136;2023-04-03T02:34:40;4.45;;;4.05;;
31112;SDS011;17763;48.730;9.136;2023-04-03T02:37:06;4.65;;;3.92;;
31112;SDS011;17763;48.730;9.136;2023-04-03T02:39:32;4.82;;;4.28;;
31112;SDS011;17763;48.730;9.136;2023-04-03T02:42:00;6.22;;;4.05;;
31112;SDS011;17763;48.730;9.136;2023-04-03T02:44:26;4.80;;;4.38;;
31112;SDS011;17763;48.730;9.136;2023-04-03T02:46:54;4.45;;;4.15;;
31112;SDS011;17763;48.730;9.136;2023-04-03T02:49:20;6.65;;;4.15;;
31112;SDS011;17763;48.730;9.136;2023-04-03T02:51:45;4.82;;;4.35;;
31112;SDS011;17763;48.730;9.136;2023-04-03T02:54:15;4.35;;;3.95;;
31112;SDS011;17763;48.730;9.136;2023-04-03T02:56:44;5.55;;;4.00;;
31112;SDS011;17763;48.730;9.136;2023-04-03T02:59:13;3.88;;;3.63;;
31112;SDS011;17763;48.730;9.136;2023-04-03T03:01:41;5.72;;;4.45;;
31112;SDS011;17763;48.730;9.136;2023-04-03T03:04:09;5.35;;;4.85;;
31112;SDS011;17763;48.730;9.136;2023-04-03T03:06:37;4.78;;;3.90;;
31112;SDS011;17763;48.730;9.136;2023-04-03T03:09:03;4.07;;;3.78;;
31112;SDS011;17763;48.730;9.136;2023-04-03T03:11:33;9.52;;;4.07;;
31112;SDS011;17763;48.730;9.136;2023-04-03T03:13:58;4.72;;;4.35;;
31112;SDS011;17763;48.730;9.136;2023-04-03T03:16:27;4.32;;;3.92;;
31112;SDS011;17763;48.730;9.136;2023-04-03T03:18:53;4.15;;;3.85;;
31112;SDS011;17763;48.730;9.136;2023-04-03T03:21:18;4.72;;;4.32;;
31112;SDS011;17763;48.730;9.136;2023-04-03T03:23:46;4.30;;;3.90;;
31112;SDS011;17763;48.730;9.136;2023-04-03T03:26:14;4.50;;;4.10;;
31112;SDS011;17763;48.730;9.136;2023-04-03T03:28:42;4.78;;;4.38;;
31112;SDS011;17763;48.730;9.136;2023-04-03T03:31:10;4.38;;;4.03;;
31112;SDS011;17763;48.730;9.136;2023-04-03T03:33:37;5.05;;;4.30;;
31112;SDS011;17763;48.730;9.136;2023-04-03T03:36:02;4.20;;;3.80;;
31112;SDS011;17763;48.730;9.136;2023-04-03T03:41:02;5.13;;;4.60;;
31112;SDS011;17763;48.730;9.136;2023-04-03T03:43:28;4.68;;;4.00;;
31112;SDS011;17763;48.730;9.136;2023-04-03T03:45:59;7.45;;;4.43;;
31112;SDS011;17763;48.730;9.136;2023-04-03T03:48:30;5.70;;;4.63;;
31112;SDS011;17763;48.730;9.136;2023-04-03T03:50:59;4.78;;;4.35;;
31112;SDS011;17763;48.730;9.136;2023-04-03T03:53:26;5.75;;;4.25;;
31112;SDS011;17763;48.730;9.136;2023-04-03T03:55:54;5.55;;;4.30;;
31112;SDS011;17763;48.730;9.136;2023-04-03T03:58:23;4.75;;;3.92;;
31112;SDS011;17763;48.730;9.136;2023-04-03T04:00:48;5.72;;;4.78;;
31112;SDS011;17763;48.730;9.136;2023-04-03T04:03:14;5.15;;;4.57;;
31112;SDS011;17763;48.730;9.136;2023-04-03T04:05:42;6.25;;;4.80;;
31112;SDS011;17763;48.730;9.136;2023-04-03T04:08:08;5.72;;;4.57;;
31112;SDS011;17763;48.730;9.136;2023-04-03T04:10:34;5.88;;;4.47;;
31112;SDS011;17763;48.730;9.136;2023-04-03T04:13:01;5.00;;;3.92;;
31112;SDS011;17763;48.730;9.136;2023-04-03T04:15:30;4.15;;;3.78;;
31112;SDS011;17763;48.730;9.136;2023-04-03T04:17:56;3.97;;;3.67;;
31112;SDS011;17763;48.730;9.136;2023-04-03T04:20:24;8.05;;;4.93;;
31112;SDS011;17763;48.730;9.136;2023-04-03T04:22:50;4.15;;;3.75;;
31112;SDS011;17763;48.730;9.136;2023-04-03T04:25:16;4.57;;;4.13;;
31112;SDS011;17763;48.730;9.136;2023-04-03T04:27:42;4.40;;;4.00;;
31112;SDS011;17763;48.730;9.136;2023-04-03T04:30:10;4.43;;;3.47;;
31112;SDS011;17763;48.730;9.136;2023-04-03T04:32:38;5.13;;;4.28;;
31112;SDS011;17763;48.730;9.136;2023-04-03T04:35:03;4.10;;;3.70;;
31112;SDS011;17763;48.730;9.136;2023-04-03T04:37:32;3.75;;;3.45;;
31112;SDS011;17763;48.730;9.136;2023-04-03T04:39:58;7.63;;;4.00;;
31112;SDS011;17763;48.730;9.136;2023-04-03T04:42:24;5.03;;;3.70;;
31112;SDS011;17763;48.730;9.136;2023-04-03T04:44:49;4.28;;;3.78;;
31112;SDS011;17763;48.730;9.136;2023-04-03T04:47:20;3.58;;;3.30;;
31112;SDS011;17763;48.730;9.136;2023-04-03T04:49:46;4.10;;;3.70;;
31112;SDS011;17763;48.730;9.136;2023-04-03T04:52:12;5.15;;;4.53;;
31112;SDS011;17763;48.730;9.136;2023-04-03T04:54:38;5.07;;;3.50;;
31112;SDS011;17763;48.730;9.136;2023-04-03T04:57:04;5.47;;;3.63;;
31112;SDS011;17763;48.730;9.136;2023-04-03T04:59:32;5.97;;;3.38;;
31112;SDS011;17763;48.730;9.136;2023-04-03T05:01:57;3.72;;;3.42;;
31112;SDS011;17763;48.730;9.136;2023-04-03T05:04:23;3.92;;;3.05;;
31112;SDS011;17763;48.730;9.136;2023-04-03T05:06:49;3.42;;;3.22;;
31112;SDS011;17763;48.730;9.136;2023-04-03T05:09:14;5.10;;;3.58;;
31112;SDS011;17763;48.730;9.136;2023-04-03T05:11:44;3.13;;;2.83;;
31112;SDS011;17763;48.730;9.136;2023-04-03T05:14:10;3.50;;;3.20;;
31112;SDS011;17763;48.730;9.136;2023-04-03T05:16:39;3.63;;;3.15;;
31112;SDS011;17763;48.730;9.136;2023-04-03T05:19:05;4.10;;;3.67;;
31112;SDS011;17763;48.730;9.136;2023-04-03T05:21:33;4.40;;;3.13;;
31112;SDS011;17763;48.730;9.136;2023-04-03T05:23:59;4.68;;;3.50;;
31112;SDS011;17763;48.730;9.136;2023-04-03T05:26:27;3.95;;;3.50;;
31112;SDS011;17763;48.730;9.136;2023-04-03T05:28:56;3.67;;;3.17;;
31112;SDS011;17763;48.730;9.136;2023-04-03T05:31:24;3.30;;;3.00;;
31112;SDS011;17763;48.730;9.136;2023-04-03T05:33:50;3.65;;;3.35;;
31112;SDS011;17763;48.730;9.136;2023-04-03T05:36:19;3.17;;;2.97;;
31112;SDS011;17763;48.730;9.136;2023-04-03T05:38:49;5.22;;;3.60;;
31112;SDS011;17763;48.730;9.136;2023-04-03T05:41:18;3.58;;;3.28;;
31112;SDS011;17763;48.730;9.136;2023-04-03T05:43:44;3.35;;;3.08;;
31112;SDS011;17763;48.730;9.136;2023-04-03T05:46:15;3.47;;;3.25;;
31112;SDS011;17763;48.730;9.136;2023-04-03T05:48:43;3.33;;;3.03;;
31112;SDS011;17763;48.730;9.136;2023-04-03T05:51:19;6.22;;;3.40;;
31112;SDS011;17763;48.730;9.136;2023-04-03T05:54:00;4.00;;;3.70;;
31112;SDS011;17763;48.730;9.136;2023-04-03T05:56:32;3.83;;;3.53;;
31112;SDS011;17763;48.730;9.136;2023-04-03T05:58:58;6.35;;;4.28;;
31112;SDS011;17763;48.730;9.136;2023-04-03T06:01:23;4.22;;;3.60;;
31112;SDS011;17763;48.730;9.136;2023-04-03T06:03:49;3.80;;;3.50;;
31112;SDS011;17763;48.730;9.136;2023-04-03T06:06:15;4.32;;;3.50;;
31112;SDS011;17763;48.730;9.136;2023-04-03T06:08:41;4.22;;;3.78;;
31112;SDS011;17763;48.730;9.136;2023-04-03T06:11:06;6.53;;;4.10;;
31112;SDS011;17763;48.730;9.136;2023-04-03T06:13:33;3.95;;;3.65;;
31112;SDS011;17763;48.730;9.136;2023-04-03T06:16:00;4.82;;;3.60;;
31112;SDS011;17763;48.730;9.136;2023-04-03T06:18:27;4.32;;;3.75;;
31112;SDS011;17763;48.730;9.136;2023-04-03T06:20:55;4.13;;;3.80;;
31112;SDS011;17763;48.730;9.136;2023-04-03T06:23:23;10.37;;;4.40;;
31112;SDS011;17763;48.730;9.136;2023-04-03T06:25:49;5.72;;;4.35;;
31112;SDS011;17763;48.730;9.136;2023-04-03T06:28:15;3.75;;;3.50;;
31112;SDS011;17763;48.730;9.136;2023-04-03T06:30:40;6.72;;;4.28;;
31112;SDS011;17763;48.730;9.136;2023-04-03T06:33:08;4.57;;;4.18;;
31112;SDS011;17763;48.730;9.136;2023-04-03T06:35:36;4.85;;;3.80;;
31112;SDS011;17763;48.730;9.136;2023-04-03T06:38:05;4.95;;;4.53;;
31112;SDS011;17763;48.730;9.136;2023-04-03T06:40:34;4.55;;;3.92;;
31112;SDS011;17763;48.730;9.136;2023-04-03T06:43:00;4.88;;;3.60;;
31112;SDS011;17763;48.730;9.136;2023-04-03T06:45:26;4.88;;;3.90;;
31112;SDS011;17763;48.730;9.136;2023-04-03T06:47:52;4.20;;;3.67;;
31112;SDS011;17763;48.730;9.136;2023-04-03T06:50:18;7.43;;;3.85;;
31112;SDS011;17763;48.730;9.136;2023-04-03T06:52:47;5.65;;;3.95;;
31112;SDS011;17763;48.730;9.136;2023-04-03T06:55:12;4.93;;;3.55;;
31112;SDS011;17763;48.730;9.136;2023-04-03T06:57:38;4.85;;;3.58;;
31112;SDS011;17763;48.730;9.136;2023-04-03T07:00:04;4.03;;;3.65;;
31112;SDS011;17763;48.730;9.136;2023-04-03T07:02:34;3.88;;;3.47;;
31112;SDS011;17763;48.730;9.136;2023-04-03T07:05:02;5.32;;;3.65;;
31112;SDS011;17763;48.730;9.136;2023-04-03T07:07:28;4.40;;;4.00;;
31112;SDS011;17763;48.730;9.136;2023-04-03T07:09:58;4.50;;;3.70;;
31112;SDS011;17763;48.730;9.136;2023-04-03T07:12:27;4.07;;;3.33;;
31112;SDS011;17763;48.730;9.136;2023-04-03T07:14:52;3.67;;;3.38;;
31112;SDS011;17763;48.730;9.136;2023-04-03T07:17:20;5.85;;;4.05;;
31112;SDS011;17763;48.730;9.136;2023-04-03T07:19:46;4.25;;;3.85;;
31112;SDS011;17763;48.730;9.136;2023-04-03T07:22:12;6.53;;;3.95;;
31112;SDS011;17763;48.730;9.136;2023-04-03T07:24:37;4.45;;;4.05;;
31112;SDS011;17763;48.730;9.136;2023-04-03T07:27:03;5.07;;;3.53;;
31112;SDS011;17763;48.730;9.136;2023-04-03T07:29:29;4.28;;;3.88;;
31112;SDS011;17763;48.730;9.136;2023-04-03T07:31:55;6.10;;;4.55;;
31112;SDS011;17763;48.730;9.136;2023-04-03T07:34:21;4.05;;;3.42;;
31112;SDS011;17763;48.730;9.136;2023-04-03T07:36:47;4.10;;;3.70;;
31112;SDS011;17763;48.730;9.136;2023-04-03T07:39:13;4.57;;;4.18;;
31112;SDS011;17763;48.730;9.136;2023-04-03T07:41:39;6.43;;;4.30;;
31112;SDS011;17763;48.730;9.136;2023-04-03T07:44:05;3.78;;;3.45;;
31112;SDS011;17763;48.730;9.136;2023-04-03T07:46:31;5.90;;;3.45;;
31112;SDS011;17763;48.730;9.136;2023-04-03T07:48:59;4.45;;;3.72;;
31112;SDS011;17763;48.730;9.136;2023-04-03T07:51:25;4.05;;;3.35;;
31112;SDS011;17763;48.730;9.136;2023-04-03T07:53:51;5.13;;;3.95;;
31112;SDS011;17763;48.730;9.136;2023-04-03T07:56:17;4.25;;;3.40;;
31112;SDS011;17763;48.730;9.136;2023-04-03T07:58:43;5.72;;;3.22;;
31112;SDS011;17763;48.730;9.136;2023-04-03T08:01:09;4.15;;;3.30;;
31112;SDS011;17763;48.730;9.136;2023-04-03T08:03:37;3.38;;;3.13;;
31112;SDS011;17763;48.730;9.136;2023-04-03T08:06:05;5.80;;;3.95;;
31112;SDS011;17763;48.730;9.136;2023-04-03T08:08:31;3.92;;;3.58;;
31112;SDS011;17763;48.730;9.136;2023-04-03T08:10:58;5.40;;;3.58;;
31112;SDS011;17763;48.730;9.136;2023-04-03T08:13:31;5.22;;;3.70;;
31112;SDS011;17763;48.730;9.136;2023-04-03T08:15:57;7.00;;;3.20;;
31112;SDS011;17763;48.730;9.136;2023-04-03T08:18:31;5.70;;;3.75;;
31112;SDS011;17763;48.730;9.136;2023-04-03T08:20:57;5.88;;;3.25;;
31112;SDS011;17763;48.730;9.136;2023-04-03T08:23:22;4.50;;;3.53;;
31112;SDS011;17763;48.730;9.136;2023-04-03T08:25:51;5.30;;;3.38;;
31112;SDS011;17763;48.730;9.136;2023-04-03T08:28:17;6.22;;;3.75;;
31112;SDS011;17763;48.730;9.136;2023-04-03T08:30:45;4.15;;;3.83;;
31112;SDS011;17763;48.730;9.136;2023-04-03T08:33:11;4.40;;;3.17;;
31112;SDS011;17763;48.730;9.136;2023-04-03T08:35:39;4.88;;;3.17;;
31112;SDS011;17763;48.730;9.136;2023-04-03T08:38:05;4.03;;;3.63;;
31112;SDS011;17763;48.730;9.136;2023-04-03T08:40:31;4.10;;;3.58;;
31112;SDS011;17763;48.730;9.136;2023-04-03T08:45:51;6.32;;;4.82;;
31112;SDS011;17763;48.730;9.136;2023-04-03T08:48:21;7.82;;;4.32;;
31112;SDS011;17763;48.730;9.136;2023-04-03T08:51:35;3.85;;;3.53;;
31112;SDS011;17763;48.730;9.136;2023-04-03T08:53:46;4.73;;;4.27;;
31112;SDS011;17763;48.730;9.136;2023-04-03T08:56:42;8.05;;;4.15;;
31112;SDS011;17763;48.730;9.136;2023-04-03T08:59:12;6.32;;;4.75;;
31112;SDS011;17763;48.730;9.136;2023-04-03T09:01:44;6.80;;;4.18;;
31112;SDS011;17763;48.730;9.136;2023-04-03T09:04:12;5.40;;;4.50;;
31112;SDS011;17763;48.730;9.136;2023-04-03T09:06:39;6.28;;;4.03;;
31112;SDS011;17763;48.730;9.136;2023-04-03T09:11:56;5.43;;;3.90;;
31112;SDS011;17763;48.730;9.136;2023-04-03T09:15:00;7.07;;;4.18;;
31112;SDS011;17763;48.730;9.136;2023-04-03T09:23:20;6.15;;;3.80;;
31112;SDS011;17763;48.730;9.136;2023-04-03T09:25:53;5.97;;;4.05;;
31112;SDS011;17763;48.730;9.136;2023-04-03T09:28:30;4.95;;;3.40;;
31112;SDS011;17763;48.730;9.136;2023-04-03T09:31:00;7.43;;;4.07;;
31112;SDS011;17763;48.730;9.136;2023-04-03T09:33:34;3.70;;;3.35;;
31112;SDS011;17763;48.730;9.136;2023-04-03T09:36:00;4.93;;;3.78;;
31112;SDS011;17763;48.730;9.136;2023-04-03T09:38:26;3.20;;;2.90;;
31112;SDS011;17763;48.730;9.136;2023-04-03T09:41:25;3.60;;;3.00;;
31112;SDS011;17763;48.730;9.136;2023-04-03T09:43:51;4.35;;;3.45;;
31112;SDS011;17763;48.730;9.136;2023-04-03T09:46:30;5.32;;;3.28;;
31112;SDS011;17763;48.730;9.136;2023-04-03T09:48:59;4.70;;;3.60;;
31112;SDS011;17763;48.730;9.136;2023-04-03T09:51:27;3.83;;;3.40;;
31112;SDS011;17763;48.730;9.136;2023-04-03T09:53:56;2.90;;;2.70;;
31112;SDS011;17763;48.730;9.136;2023-04-03T09:56:31;4.68;;;2.67;;
31112;SDS011;17763;48.730;9.136;2023-04-03T10:06:52;4.38;;;2.90;;
31112;SDS011;17763;48.730;9.136;2023-04-03T10:09:23;3.20;;;2.90;;
31112;SDS011;17763;48.730;9.136;2023-04-03T10:14:30;3.55;;;3.15;;
31112;SDS011;17763;48.730;9.136;2023-04-03T10:31:44;2.90;;;2.70;;
31112;SDS011;17763;48.730;9.136;2023-04-03T10:34:21;3.42;;;2.60;;
31112;SDS011;17763;48.730;9.136;2023-04-03T10:45:15;3.20;;;2.45;;
31112;SDS011;17763;48.730;9.136;2023-04-03T10:48:02;4.50;;;2.63;;
31112;SDS011;17763;48.730;9.136;2023-04-03T11:01:58;4.47;;;3.15;;
31112;SDS011;17763;48.730;9.136;2023-04-03T11:04:29;3.92;;;3.08;;
31112;SDS011;17763;48.730;9.136;2023-04-03T11:07:04;6.05;;;3.20;;
31112;SDS011;17763;48.730;9.136;2023-04-03T11:09:37;3.67;;;2.95;;
31112;SDS011;17763;48.730;9.136;2023-04-03T11:12:11;4.30;;;3.40;;
31112;SDS011;17763;48.730;9.136;2023-04-03T11:14:42;5.18;;;3.35;;
31112;SDS011;17763;48.730;9.136;2023-04-03T11:22:16;4.32;;;3.10;;
31112;SDS011;17763;48.730;9.136;2023-04-03T11:27:41;4.60;;;3.58;;
31112;SDS011;17763;48.730;9.136;2023-04-03T11:36:03;3.25;;;2.30;;
31112;SDS011;17763;48.730;9.136;2023-04-03T11:38:51;4.75;;;2.80;;
31112;SDS011;17763;48.730;9.136;2023-04-03T11:41:26;4.25;;;2.53;;
31112;SDS011;17763;48.730;9.136;2023-04-03T11:49:57;4.60;;;2.08;;
31112;SDS011;17763;48.730;9.136;2023-04-03T12:05:49;4.00;;;2.50;;
31112;SDS011;17763;48.730;9.136;2023-04-03T12:14:23;4.07;;;2.30;;
31112;SDS011;17763;48.730;9.136;2023-04-03T12:16:27;3.22;;;2.72;;
31112;SDS011;17763;48.730;9.136;2023-04-03T12:19:03;3.92;;;2.15;;
31112;SDS011;17763;48.730;9.136;2023-04-03T12:24:30;6.32;;;2.92;;
31112;SDS011;17763;48.730;9.136;2023-04-03T12:29:27;3.35;;;3.00;;
31112;SDS011;17763;48.730;9.136;2023-04-03T12:46:42;3.53;;;3.05;;
31112;SDS011;17763;48.730;9.136;2023-04-03T12:51:47;4.07;;;2.70;;
31112;SDS011;17763;48.730;9.136;2023-04-03T12:59:51;3.72;;;2.42;;
31112;SDS011;17763;48.730;9.136;2023-04-03T13:04:51;2.88;;;2.65;;
31112;SDS011;17763;48.730;9.136;2023-04-03T13:07:22;2.80;;;2.50;;
31112;SDS011;17763;48.730;9.136;2023-04-03T13:12:56;5.32;;;2.30;;
31112;SDS011;17763;48.730;9.136;2023-04-03T13:15:26;7.78;;;2.83;;
31112;SDS011;17763;48.730;9.136;2023-04-03T13:17:54;2.85;;;2.55;;
31112;SDS011;17763;48.730;9.136;2023-04-03T13:20:25;3.20;;;2.67;;
31112;SDS011;17763;48.730;9.136;2023-04-03T13:22:55;5.47;;;2.53;;
31112;SDS011;17763;48.730;9.136;2023-04-03T13:25:25;6.13;;;3.78;;
31112;SDS011;17763;48.730;9.136;2023-04-03T13:27:54;5.43;;;2.53;;
31112;SDS011;17763;48.730;9.136;2023-04-03T13:30:30;4.95;;;2.85;;
31112;SDS011;17763;48.730;9.136;2023-04-03T13:33:00;4.38;;;2.33;;
31112;SDS011;17763;48.730;9.136;2023-04-03T13:35:32;3.40;;;2.30;;
31112;SDS011;17763;48.730;9.136;2023-04-03T13:38:02;2.50;;;2.30;;
31112;SDS011;17763;48.730;9.136;2023-04-03T13:40:48;7.05;;;2.55;;
31112;SDS011;17763;48.730;9.136;2023-04-03T13:43:20;5.40;;;2.35;;
31112;SDS011;17763;48.730;9.136;2023-04-03T13:45:55;2.50;;;2.30;;
31112;SDS011;17763;48.730;9.136;2023-04-03T13:48:21;4.65;;;3.10;;
31112;SDS011;17763;48.730;9.136;2023-04-03T13:50:53;6.25;;;2.90;;
31112;SDS011;17763;48.730;9.136;2023-04-03T13:53:22;2.90;;;2.40;;
31112;SDS011;17763;48.730;9.136;2023-04-03T13:55:54;7.00;;;3.00;;
31112;SDS011;17763;48.730;9.136;2023-04-03T13:58:24;3.17;;;2.65;;
31112;SDS011;17763;48.730;9.136;2023-04-03T14:00:53;2.38;;;2.17;;
31112;SDS011;17763;48.730;9.136;2023-04-03T14:03:41;4.80;;;2.38;;
31112;SDS011;17763;48.730;9.136;2023-04-03T14:06:33;3.33;;;2.60;;
31112;SDS011;17763;48.730;9.136;2023-04-03T14:08:59;3.20;;;2.58;;
31112;SDS011;17763;48.730;9.136;2023-04-03T14:11:26;2.78;;;2.33;;
31112;SDS011;17763;48.730;9.136;2023-04-03T14:14:00;2.47;;;2.28;;
31112;SDS011;17763;48.730;9.136;2023-04-03T14:16:33;2.65;;;2.45;;
31112;SDS011;17763;48.730;9.136;2023-04-03T14:19:04;3.58;;;2.60;;
31112;SDS011;17763;48.730;9.136;2023-04-03T14:21:30;3.05;;;2.80;;
31112;SDS011;17763;48.730;9.136;2023-04-03T14:23:58;3.92;;;3.25;;
31112;SDS011;17763;48.730;9.136;2023-04-03T14:26:24;3.25;;;2.38;;
31112;SDS011;17763;48.730;9.136;2023-04-03T14:28:53;3.28;;;2.90;;
31112;SDS011;17763;48.730;9.136;2023-04-03T14:31:22;2.92;;;2.60;;
31112;SDS011;17763;48.730;9.136;2023-04-03T14:33:48;4.50;;;2.80;;
31112;SDS011;17763;48.730;9.136;2023-04-03T14:36:15;2.83;;;2.63;;
31112;SDS011;17763;48.730;9.136;2023-04-03T14:38:43;3.10;;;2.90;;
31112;SDS011;17763;48.730;9.136;2023-04-03T14:41:11;2.78;;;2.58;;
31112;SDS011;17763;48.730;9.136;2023-04-03T14:43:41;3.80;;;2.78;;
31112;SDS011;17763;48.730;9.136;2023-04-03T14:46:12;6.47;;;2.50;;
31112;SDS011;17763;48.730;9.136;2023-04-03T14:48:40;3.42;;;2.85;;
31112;SDS011;17763;48.730;9.136;2023-04-03T14:51:10;7.15;;;2.60;;
31112;SDS011;17763;48.730;9.136;2023-04-03T14:53:43;3.47;;;2.67;;
31112;SDS011;17763;48.730;9.136;2023-04-03T14:56:21;3.30;;;2.78;;
31112;SDS011;17763;48.730;9.136;2023-04-03T14:58:54;2.83;;;2.63;;
31112;SDS011;17763;48.730;9.136;2023-04-03T15:01:34;4.45;;;2.42;;
31112;SDS011;17763;48.730;9.136;2023-04-03T15:04:00;4.47;;;2.80;;
31112;SDS011;17763;48.730;9.136;2023-04-03T15:06:26;3.20;;;2.50;;
31112;SDS011;17763;48.730;9.136;2023-04-03T15:08:54;4.22;;;3.00;;
31112;SDS011;17763;48.730;9.136;2023-04-03T15:11:22;4.45;;;2.60;;
31112;SDS011;17763;48.730;9.136;2023-04-03T15:13:48;3.97;;;2.45;;
31112;SDS011;17763;48.730;9.136;2023-04-03T15:16:18;5.65;;;3.70;;
31112;SDS011;17763;48.730;9.136;2023-04-03T15:18:47;3.15;;;2.60;;
31112;SDS011;17763;48.730;9.136;2023-04-03T15:21:22;3.85;;;3.45;;
31112;SDS011;17763;48.730;9.136;2023-04-03T15:23:51;3.55;;;2.60;;
31112;SDS011;17763;48.730;9.136;2023-04-03T15:26:19;3.85;;;2.35;;
31112;SDS011;17763;48.730;9.136;2023-04-03T15:28:45;3.83;;;2.63;;
31112;SDS011;17763;48.730;9.136;2023-04-03T15:31:13;3.35;;;2.72;;
31112;SDS011;17763;48.730;9.136;2023-04-03T15:33:39;5.38;;;2.72;;
31112;SDS011;17763;48.730;9.136;2023-04-03T15:36:05;6.28;;;2.78;;
31112;SDS011;17763;48.730;9.136;2023-04-03T15:38:31;3.03;;;2.58;;
31112;SDS011;17763;48.730;9.136;2023-04-03T15:40:59;2.90;;;2.67;;
31112;SDS011;17763;48.730;9.136;2023-04-03T15:43:28;3.15;;;2.13;;
31112;SDS011;17763;48.730;9.136;2023-04-03T15:45:56;2.47;;;2.28;;
31112;SDS011;17763;48.730;9.136;2023-04-03T15:48:23;3.85;;;2.45;;
31112;SDS011;17763;48.730;9.136;2023-04-03T15:50:49;3.10;;;2.83;;
31112;SDS011;17763;48.730;9.136;2023-04-03T15:53:15;3.60;;;2.60;;
31112;SDS011;17763;48.730;9.136;2023-04-03T15:55:41;5.30;;;2.35;;
31112;SDS011;17763;48.730;9.136;2023-04-03T15:58:07;6.07;;;2.78;;
31112;SDS011;17763;48.730;9.136;2023-04-03T16:00:33;2.38;;;2.17;;
31112;SDS011;17763;48.730;9.136;2023-04-03T16:03:05;5.05;;;2.75;;
31112;SDS011;17763;48.730;9.136;2023-04-03T16:05:35;6.20;;;2.60;;
31112;SDS011;17763;48.730;9.136;2023-04-03T16:08:05;5.60;;;2.80;;
31112;SDS011;17763;48.730;9.136;2023-04-03T16:10:32;3.38;;;2.53;;
31112;SDS011;17763;48.730;9.136;2023-04-03T16:12:59;7.93;;;3.90;;
31112;SDS011;17763;48.730;9.136;2023-04-03T16:15:25;2.80;;;2.47;;
31112;SDS011;17763;48.730;9.136;2023-04-03T16:17:51;3.45;;;2.67;;
31112;SDS011;17763;48.730;9.136;2023-04-03T16:20:20;3.78;;;2.63;;
31112;SDS011;17763;48.730;9.136;2023-04-03T16:22:46;3.60;;;2.70;;
31112;SDS011;17763;48.730;9.136;2023-04-03T16:25:13;2.28;;;2.05;;
31112;SDS011;17763;48.730;9.136;2023-04-03T16:27:39;3.63;;;2.83;;
31112;SDS011;17763;48.730;9.136;2023-04-03T16:30:05;2.65;;;2.45;;
31112;SDS011;17763;48.730;9.136;2023-04-03T16:32:32;4.22;;;2.60;;
31112;SDS011;17763;48.730;9.136;2023-04-03T16:34:58;4.20;;;2.60;;
31112;SDS011;17763;48.730;9.136;2023-04-03T16:37:24;3.63;;;2.10;;
31112;SDS011;17763;48.730;9.136;2023-04-03T16:39:50;2.28;;;2.08;;
31112;SDS011;17763;48.730;9.136;2023-04-03T16:42:16;3.15;;;2.47;;
31112;SDS011;17763;48.730;9.136;2023-04-03T16:44:42;2.80;;;2.60;;
31112;SDS011;17763;48.730;9.136;2023-04-03T16:47:10;3.95;;;2.63;;
31112;SDS011;17763;48.730;9.136;2023-04-03T16:49:38;3.70;;;2.55;;
31112;SDS011;17763;48.730;9.136;2023-04-03T16:52:04;2.40;;;2.20;;
31112;SDS011;17763;48.730;9.136;2023-04-03T16:54:33;3.08;;;2.53;;
31112;SDS011;17763;48.730;9.136;2023-04-03T16:56:58;2.80;;;2.60;;
31112;SDS011;17763;48.730;9.136;2023-04-03T16:59:24;2.53;;;2.30;;
31112;SDS011;17763;48.730;9.136;2023-04-03T17:01:52;4.30;;;2.35;;
31112;SDS011;17763;48.730;9.136;2023-04-03T17:04:18;2.92;;;2.72;;
31112;SDS011;17763;48.730;9.136;2023-04-03T17:06:47;5.90;;;2.80;;
31112;SDS011;17763;48.730;9.136;2023-04-03T17:09:13;3.08;;;2.13;;
31112;SDS011;17763;48.730;9.136;2023-04-03T17:11:39;3.40;;;2.80;;
31112;SDS011;17763;48.730;9.136;2023-04-03T17:14:05;4.43;;;2.42;;
31112;SDS011;17763;48.730;9.136;2023-04-03T17:16:32;7.47;;;2.33;;
31112;SDS011;17763;48.730;9.136;2023-04-03T17:19:00;2.53;;;2.33;;